createdAt,value
2022-08-16T00:01:59.913Z,24.50
2022-08-16T00:04:31.236Z,24.50
2022-08-16T00:07:01.709Z,24.50
2022-08-16T00:09:33.566Z,24.50
2022-08-16T00:12:07.050Z,24.50
2022-08-16T00:17:24.398Z,24.60
2022-08-16T00:28:03.874Z,24.30
2022-08-16T00:30:34.743Z,23.60
2022-08-16T00:33:06.287Z,23.90
2022-08-16T00:38:41.488Z,24.40
2022-08-16T00:44:02.538Z,24.70
2022-08-16T00:46:54.087Z,24.80
2022-08-16T00:49:39.747Z,24.90
2022-08-16T00:52:29.214Z,25.10
2022-08-16T00:55:08.355Z,25.20
2022-08-16T00:57:58.593Z,25.30
2022-08-16T01:00:31.166Z,25.30
2022-08-16T01:03:05.405Z,25.40
2022-08-16T01:05:36.003Z,25.60
2022-08-16T01:10:55.400Z,25.70
2022-08-16T01:13:32.801Z,25.80
2022-08-16T01:19:27.727Z,25.90
2022-08-16T01:22:49.483Z,25.90
2022-08-16T01:25:09.347Z,25.80
2022-08-16T01:27:49.614Z,25.80
2022-08-16T01:30:39.839Z,26.00
2022-08-16T01:33:22.595Z,26.30
2022-08-16T01:36:11.640Z,26.70
2022-08-16T01:38:48.964Z,27.00
2022-08-16T01:41:32.635Z,27.20
2022-08-16T01:44:12.598Z,27.50
2022-08-16T02:00:48.921Z,28.70
2022-08-16T02:03:24.361Z,28.90
2022-08-16T02:05:57.373Z,28.80
2022-08-16T02:08:33.002Z,28.90
2022-08-16T02:13:54.973Z,29.10
2022-08-16T02:16:25.703Z,29.20
2022-08-16T02:18:56.204Z,29.30
2022-08-16T02:21:31.289Z,29.30
2022-08-16T02:24:02.474Z,29.30
2022-08-16T02:35:12.891Z,29.10
2022-08-16T02:43:18.631Z,29.10
2022-08-16T02:45:49.974Z,29.20
2022-08-16T02:51:10.777Z,29.10
2022-08-16T02:53:45.962Z,29.10
2022-08-16T02:56:18.154Z,29.10
2022-08-16T02:58:51.460Z,29.20
2022-08-16T03:01:33.795Z,29.10
2022-08-16T03:04:39.224Z,29.10
2022-08-16T03:07:00.352Z,29.20
2022-08-16T03:09:34.791Z,29.40
2022-08-16T03:12:06.549Z,29.50
2022-08-16T03:14:38.130Z,29.60
2022-08-16T03:17:08.692Z,29.70
2022-08-16T03:22:29.109Z,29.70
2022-08-16T03:25:02.462Z,29.50
2022-08-16T03:30:29.839Z,29.40
2022-08-16T03:38:34.977Z,29.30
2022-08-16T03:41:08.872Z,29.40
2022-08-16T03:43:56.710Z,29.50
2022-08-16T03:46:48.448Z,29.50
2022-08-16T03:49:19.455Z,29.50
2022-08-16T03:51:51.915Z,29.50
2022-08-16T03:54:23.412Z,29.40
2022-08-16T03:56:56.642Z,29.50
2022-08-16T03:59:29.355Z,29.60
2022-08-16T04:02:04.225Z,29.70
2022-08-16T04:04:42.422Z,29.70
2022-08-16T04:07:14.136Z,29.70
2022-08-16T04:09:45.334Z,29.70
2022-08-16T04:12:54.661Z,29.80
2022-08-16T04:15:10.843Z,29.90
2022-08-16T04:17:44.668Z,29.90
2022-08-16T04:23:03.565Z,29.90
2022-08-16T04:28:29.336Z,29.70
2022-08-16T04:31:15.367Z,29.80
2022-08-16T04:33:50.573Z,29.90
2022-08-16T04:39:09.200Z,30.20
2022-08-16T04:41:39.655Z,30.30
2022-08-16T04:47:00.862Z,30.30
2022-08-16T04:49:43.626Z,30.50
2022-08-16T04:52:33.936Z,30.50
2022-08-16T04:55:17.841Z,30.60
2022-08-16T05:00:38.260Z,30.50
2022-08-16T05:03:15.417Z,30.60
2022-08-16T05:05:59.614Z,30.60
2022-08-16T05:14:08.376Z,30.80
2022-08-16T05:16:43.324Z,30.90
2022-08-16T05:19:16.464Z,30.90
2022-08-16T05:21:47.079Z,30.80
2022-08-16T05:27:11.093Z,30.80
2022-08-16T05:29:59.314Z,30.80
2022-08-16T05:32:36.631Z,30.80
2022-08-16T05:35:17.584Z,30.90
2022-08-16T05:37:48.317Z,30.70
2022-08-16T05:40:19.932Z,30.60
2022-08-16T05:45:39.418Z,30.80
2022-08-16T05:53:45.017Z,30.50
2022-08-16T05:56:19.428Z,30.50
2022-08-16T05:58:50.161Z,30.70
2022-08-16T06:01:21.644Z,30.80
2022-08-16T06:03:52.282Z,30.80
2022-08-16T06:09:09.031Z,31.10
2022-08-16T06:11:39.661Z,31.20
2022-08-16T06:14:14.164Z,31.20
2022-08-16T06:16:50.558Z,31.30
2022-08-16T06:19:22.373Z,31.30
2022-08-16T06:21:55.224Z,31.40
2022-08-16T06:24:54.216Z,31.60
2022-08-16T06:27:17.437Z,31.70
2022-08-16T06:32:38.360Z,31.70
2022-08-16T06:35:14.003Z,31.70
2022-08-16T06:37:47.537Z,31.70
2022-08-16T06:40:22.033Z,31.70
2022-08-16T06:43:04.603Z,31.80
2022-08-16T06:45:35.678Z,31.90
2022-08-16T06:48:08.896Z,31.90
2022-08-16T06:50:39.388Z,32.00
2022-08-16T06:53:16.065Z,31.90
2022-08-16T06:55:53.740Z,31.90
2022-08-16T06:58:31.586Z,31.90
2022-08-16T07:01:04.082Z,31.90
2022-08-16T07:03:54.970Z,31.90
2022-08-16T07:06:28.301Z,32.00
2022-08-16T07:08:59.625Z,32.10
2022-08-16T07:11:47.564Z,32.10
2022-08-16T07:14:23.814Z,32.00
2022-08-16T07:28:09.361Z,31.90
2022-08-16T07:30:46.373Z,31.80
2022-08-16T07:33:52.683Z,31.60
2022-08-16T07:36:12.205Z,31.60
2022-08-16T07:41:29.466Z,31.40
2022-08-16T07:46:47.211Z,31.60
2022-08-16T07:49:26.669Z,31.70
2022-08-16T07:52:20.166Z,31.80
2022-08-16T07:54:53.233Z,32.00
2022-08-16T07:57:24.515Z,32.10
2022-08-16T07:59:57.382Z,32.00
2022-08-16T08:02:28.162Z,31.90
2022-08-16T08:04:59.251Z,31.80
2022-08-16T08:07:33.808Z,31.70
2022-08-16T08:10:10.927Z,31.70
2022-08-16T08:12:43.761Z,31.60
2022-08-16T08:15:15.326Z,31.40
2022-08-16T08:20:46.707Z,31.30
2022-08-16T08:26:18.231Z,31.40
2022-08-16T08:28:50.976Z,31.30
2022-08-16T08:31:22.829Z,31.30
2022-08-16T08:33:53.246Z,31.30
2022-08-16T08:36:32.962Z,31.30
2022-08-16T08:41:51.921Z,31.20
2022-08-16T08:44:28.690Z,31.20
2022-08-16T08:47:10.937Z,31.30
2022-08-16T08:49:46.389Z,31.50
2022-08-16T08:52:34.273Z,31.40
2022-08-16T08:55:12.869Z,31.50
2022-08-16T08:57:47.303Z,31.60
2022-08-16T09:00:21.516Z,31.80
2022-08-16T09:02:57.927Z,31.70
2022-08-16T09:05:36.006Z,31.60
2022-08-16T09:08:08.974Z,31.70
2022-08-16T09:10:40.761Z,31.90
2022-08-16T09:13:13.465Z,32.10
2022-08-16T09:18:35.735Z,32.10
2022-08-16T09:21:09.682Z,32.00
2022-08-16T09:26:44.865Z,32.20
2022-08-16T09:32:04.034Z,32.10
2022-08-16T09:37:29.490Z,31.70
2022-08-16T09:40:01.921Z,31.70
2022-08-16T09:42:56.620Z,31.60
2022-08-16T09:45:23.761Z,31.80
2022-08-16T09:47:58.367Z,32.00
2022-08-16T09:50:38.268Z,32.10
2022-08-16T09:53:16.528Z,32.10
2022-08-16T09:58:41.743Z,32.10
2022-08-16T10:01:27.454Z,32.10
2022-08-16T10:04:02.774Z,32.20
2022-08-16T10:06:35.479Z,32.30
2022-08-16T10:09:08.295Z,32.30
2022-08-16T10:12:11.591Z,32.30
2022-08-16T10:14:49.691Z,32.30
2022-08-16T10:17:21.119Z,32.20
2022-08-16T10:19:57.405Z,32.10
2022-08-16T10:22:28.287Z,32.00
2022-08-16T10:24:59.922Z,32.00
2022-08-16T10:27:57.043Z,32.00
2022-08-16T10:30:26.094Z,32.00
2022-08-16T10:32:59.220Z,31.90
2022-08-16T10:35:33.124Z,31.80
2022-08-16T10:40:49.649Z,31.80
2022-08-16T10:46:40.012Z,31.80
2022-08-16T10:49:05.113Z,31.80
2022-08-16T10:54:29.216Z,31.60
2022-08-16T10:57:04.323Z,31.60
2022-08-16T10:59:54.426Z,31.70
2022-08-16T11:02:58.461Z,31.60
2022-08-16T11:08:09.853Z,31.10
2022-08-16T11:11:04.985Z,31.00
2022-08-16T11:16:26.428Z,30.90
2022-08-16T11:24:45.028Z,30.60
2022-08-16T11:27:23.507Z,30.60
2022-08-16T11:29:59.191Z,30.50
2022-08-16T11:32:33.666Z,30.50
2022-08-16T11:35:14.870Z,30.40
2022-08-16T11:38:23.538Z,30.40
2022-08-16T11:40:58.915Z,30.30
2022-08-16T11:43:31.182Z,30.40
2022-08-16T11:46:44.794Z,30.30
2022-08-16T11:51:46.418Z,30.30
2022-08-16T11:57:03.704Z,30.20
2022-08-16T11:59:41.583Z,30.10
2022-08-16T12:02:31.908Z,30.00
2022-08-16T12:05:03.471Z,30.00
2022-08-16T12:07:34.017Z,30.00
2022-08-16T12:10:07.148Z,29.90
2022-08-16T12:12:38.276Z,29.80
2022-08-16T12:15:09.229Z,29.70
2022-08-16T12:17:40.943Z,29.60
2022-08-16T12:20:18.795Z,29.60
2022-08-16T12:22:50.328Z,29.60
2022-08-16T12:25:24.695Z,29.50
2022-08-16T12:27:56.720Z,29.40
2022-08-16T12:30:37.791Z,29.30
2022-08-16T12:33:11.746Z,29.30
2022-08-16T12:35:43.955Z,29.20
2022-08-16T12:38:38.643Z,29.20
2022-08-16T12:41:05.123Z,29.20
2022-08-16T12:43:40.385Z,29.20
2022-08-16T12:46:15.850Z,29.10
2022-08-16T12:49:02.139Z,29.00
2022-08-16T12:51:58.976Z,28.90
2022-08-16T12:54:27.575Z,28.90
2022-08-16T12:56:59.323Z,28.90
2022-08-16T12:59:31.174Z,28.80
2022-08-16T13:02:02.817Z,28.60
2022-08-16T13:04:37.606Z,28.60
2022-08-16T13:07:08.925Z,28.60
2022-08-16T13:09:49.888Z,28.50
2022-08-16T13:15:16.695Z,28.40
2022-08-16T13:17:49.194Z,28.30
2022-08-16T13:20:25.121Z,28.30
2022-08-16T13:25:51.040Z,28.20
2022-08-16T13:28:25.312Z,28.20
2022-08-16T13:30:58.255Z,28.10
2022-08-16T13:33:38.909Z,28.10
2022-08-16T13:36:26.127Z,28.10
2022-08-16T13:39:02.796Z,28.00
2022-08-16T13:44:21.231Z,28.00
2022-08-16T13:46:51.954Z,28.00
2022-08-16T13:49:24.493Z,28.00
2022-08-16T13:51:54.811Z,28.00
2022-08-16T13:54:26.461Z,27.90
2022-08-16T13:56:59.030Z,27.90
2022-08-16T13:59:29.787Z,28.00
2022-08-16T14:02:07.663Z,28.00
2022-08-16T14:04:41.777Z,28.00
2022-08-16T14:07:24.520Z,28.10
2022-08-16T14:12:42.454Z,28.00
2022-08-16T14:15:18.024Z,28.00
2022-08-16T14:18:15.149Z,27.90
2022-08-16T14:26:10.726Z,27.80
2022-08-16T14:28:41.498Z,27.70
2022-08-16T14:31:12.811Z,27.70
2022-08-16T14:33:45.792Z,27.70
2022-08-16T14:39:03.574Z,27.70
2022-08-16T14:41:33.905Z,27.70
2022-08-16T14:46:50.710Z,27.60
2022-08-16T14:49:24.222Z,27.70
2022-08-16T14:51:54.737Z,27.70
2022-08-16T14:57:14.923Z,27.70
2022-08-16T14:59:48.046Z,27.60
2022-08-16T15:02:35.041Z,27.70
2022-08-16T15:05:08.109Z,27.70
2022-08-16T15:07:40.442Z,27.60
2022-08-16T15:10:24.029Z,27.70
2022-08-16T15:13:00.382Z,27.60
2022-08-16T15:15:36.100Z,27.60
2022-08-16T15:18:12.111Z,27.60
2022-08-16T15:20:44.253Z,27.50
2022-08-16T15:23:16.823Z,27.50
2022-08-16T15:26:02.627Z,27.40
2022-08-16T15:31:22.813Z,27.30
2022-08-16T15:33:58.073Z,27.30
2022-08-16T15:36:31.739Z,27.30
2022-08-16T15:39:27.933Z,27.30
2022-08-16T15:41:54.328Z,27.30
2022-08-16T15:47:21.801Z,27.20
2022-08-16T15:49:57.603Z,27.20
2022-08-16T15:52:35.053Z,27.20
2022-08-16T15:55:23.899Z,27.10
2022-08-16T16:00:47.576Z,27.10
2022-08-16T16:06:07.488Z,27.10
2022-08-16T16:08:41.467Z,27.00
2022-08-16T16:11:12.197Z,27.00
2022-08-16T16:13:42.661Z,27.00
2022-08-16T16:16:16.705Z,26.90
2022-08-16T16:18:50.648Z,26.90
2022-08-16T16:21:22.822Z,26.90
2022-08-16T16:26:41.924Z,26.80
2022-08-16T16:29:17.530Z,26.80
2022-08-16T16:34:35.601Z,26.80
2022-08-16T16:37:09.432Z,26.90
2022-08-16T16:39:40.776Z,26.80
2022-08-16T16:42:11.333Z,26.80
2022-08-16T16:45:04.992Z,26.80
2022-08-16T16:47:41.433Z,26.70
2022-08-16T16:50:14.946Z,26.80
2022-08-16T16:52:46.862Z,26.80
2022-08-16T16:55:17.905Z,26.70
2022-08-16T17:00:58.833Z,26.70
2022-08-16T17:06:16.799Z,26.70
2022-08-16T17:08:48.460Z,26.70
2022-08-16T17:11:21.942Z,26.60
2022-08-16T17:13:53.024Z,26.60
2022-08-16T17:16:32.929Z,26.60
2022-08-16T17:19:16.682Z,26.60
2022-08-16T17:21:50.415Z,26.50
2022-08-16T17:24:25.777Z,26.50
2022-08-16T17:27:04.235Z,26.50
2022-08-16T17:29:34.947Z,26.50
2022-08-16T17:32:33.625Z,26.50
2022-08-16T17:35:10.299Z,26.50
2022-08-16T17:37:51.799Z,26.50
2022-08-16T17:40:46.033Z,26.50
2022-08-16T17:43:19.416Z,26.50
2022-08-16T17:48:38.562Z,26.40
2022-08-16T17:51:09.514Z,26.50
2022-08-16T17:53:40.284Z,26.40
2022-08-16T17:56:12.461Z,26.50
2022-08-16T17:58:42.921Z,26.40
2022-08-16T18:01:14.139Z,26.40
2022-08-16T18:04:07.410Z,26.40
2022-08-16T18:06:35.726Z,26.40
2022-08-16T18:11:52.580Z,26.40
2022-08-16T18:14:52.253Z,26.40
2022-08-16T18:17:16.432Z,26.50
2022-08-16T18:19:46.825Z,26.50
2022-08-16T18:22:30.568Z,26.50
2022-08-16T18:25:01.426Z,26.50
2022-08-16T18:27:34.677Z,26.60
2022-08-16T18:30:05.104Z,26.60
2022-08-16T18:32:35.480Z,26.50
2022-08-16T18:37:58.209Z,26.40
2022-08-16T18:40:28.684Z,26.30
2022-08-16T18:43:08.265Z,26.30
2022-08-16T18:45:41.355Z,26.30
2022-08-16T18:48:12.834Z,26.40
2022-08-16T18:53:31.370Z,26.40
2022-08-16T18:56:04.426Z,26.50
2022-08-16T18:58:37.649Z,26.50
2022-08-16T19:01:08.113Z,26.60
2022-08-16T19:03:38.532Z,26.60
2022-08-16T19:06:13.664Z,26.60
2022-08-16T19:08:48.438Z,26.60
2022-08-16T19:16:55.997Z,26.60
2022-08-16T19:19:28.434Z,26.60
2022-08-16T19:21:59.541Z,26.50
2022-08-16T19:24:30.450Z,26.40
2022-08-16T19:27:01.710Z,26.40
2022-08-16T19:29:32.827Z,26.40
2022-08-16T19:37:35.576Z,26.30
2022-08-16T19:40:37.255Z,26.30
2022-08-16T19:43:11.596Z,26.40
2022-08-16T19:45:45.916Z,26.30
2022-08-16T19:48:16.762Z,26.30
2022-08-16T19:50:47.230Z,26.30
2022-08-16T19:53:19.621Z,26.30
2022-08-16T19:58:36.634Z,26.30
2022-08-16T20:01:07.271Z,26.30
2022-08-16T20:03:37.617Z,26.30
2022-08-16T20:08:53.944Z,26.30
2022-08-16T20:11:24.348Z,26.30
2022-08-16T20:13:54.678Z,26.30
2022-08-16T20:16:25.178Z,26.30
2022-08-16T20:18:55.518Z,26.30
2022-08-16T20:21:26.452Z,26.30
2022-08-16T20:24:15.777Z,26.30
2022-08-16T20:29:33.136Z,26.30
2022-08-16T20:32:03.792Z,26.30
2022-08-16T20:34:34.408Z,26.40
2022-08-16T20:37:04.888Z,26.30
2022-08-16T20:39:35.447Z,26.40
2022-08-16T20:42:06.121Z,26.40
2022-08-16T20:44:36.472Z,26.30
2022-08-16T20:47:07.618Z,26.40
2022-08-16T20:49:39.423Z,26.40
2022-08-16T20:55:01.621Z,26.40
2022-08-16T20:57:32.063Z,26.30
2022-08-16T21:00:02.439Z,26.30
2022-08-16T21:02:32.781Z,26.30
2022-08-16T21:05:05.807Z,26.30
2022-08-16T21:07:36.265Z,26.30
2022-08-16T21:10:09.576Z,26.30
2022-08-16T21:12:49.787Z,26.30
2022-08-16T21:18:07.259Z,26.30
2022-08-16T21:23:24.375Z,26.20
2022-08-16T21:28:43.343Z,26.30
2022-08-16T21:31:15.645Z,26.30
2022-08-16T21:33:55.110Z,26.20
2022-08-16T21:36:35.686Z,26.30
2022-08-16T21:41:54.196Z,26.30
2022-08-16T21:44:24.687Z,26.20
2022-08-16T21:47:08.244Z,26.20
2022-08-16T21:49:40.090Z,26.20
2022-08-16T21:52:25.928Z,26.10
2022-08-16T21:54:59.205Z,26.20
2022-08-16T21:57:35.340Z,26.20
2022-08-16T22:03:05.350Z,26.20
2022-08-16T22:08:24.091Z,26.20
2022-08-16T22:11:07.487Z,26.20
2022-08-16T22:13:40.234Z,26.10
2022-08-16T22:16:13.849Z,26.10
2022-08-16T22:18:44.199Z,26.10
2022-08-16T22:21:23.219Z,26.00
2022-08-16T22:23:57.647Z,26.00
2022-08-16T22:26:34.453Z,26.00
2022-08-16T22:31:59.024Z,26.00
2022-08-16T22:34:29.374Z,26.00
2022-08-16T22:36:59.962Z,26.00
2022-08-16T22:39:30.567Z,26.00
2022-08-16T22:42:01.095Z,26.00
2022-08-16T22:44:31.521Z,26.00
2022-08-16T22:47:02.006Z,25.90
2022-08-16T22:52:36.947Z,25.90
2022-08-16T22:57:58.723Z,25.70
2022-08-16T23:03:20.899Z,25.70
2022-08-16T23:08:45.159Z,25.60
2022-08-16T23:11:23.042Z,25.60
2022-08-16T23:13:56.161Z,25.60
2022-08-16T23:16:33.120Z,25.60
2022-08-16T23:19:06.858Z,25.60
2022-08-16T23:21:39.107Z,25.60
2022-08-16T23:24:10.802Z,25.70
2022-08-16T23:26:45.756Z,25.70
2022-08-16T23:29:24.855Z,25.70
2022-08-16T23:32:00.140Z,25.70
2022-08-16T23:34:31.669Z,25.60
2022-08-16T23:37:02.045Z,25.60
2022-08-16T23:39:32.530Z,25.60
2022-08-16T23:42:03.977Z,25.60
2022-08-16T23:44:55.267Z,25.60
2022-08-16T23:50:12.483Z,25.60
2022-08-16T23:53:06.768Z,25.60
2022-08-16T23:55:50.914Z,25.60
2022-08-16T23:58:23.789Z,25.60
